createdAt,value
2023-04-30T00:07:36.506Z,12.80
2023-04-30T00:18:02.186Z,13.80
2023-04-30T00:28:28.200Z,15.10
2023-04-30T00:38:53.624Z,15.40
2023-04-30T00:49:19.299Z,12.90
2023-04-30T00:59:45.731Z,14.40
2023-04-30T01:10:13.913Z,13.80
2023-04-30T01:31:22.772Z,11.70
2023-04-30T01:41:57.986Z,9.90
2023-04-30T01:52:32.967Z,9.30
2023-04-30T02:02:59.513Z,8.90
2023-04-30T02:13:25.255Z,7.00
2023-04-30T02:23:50.822Z,5.90
2023-04-30T02:34:16.504Z,5.10
2023-04-30T02:44:42.098Z,3.60
2023-04-30T02:55:17.118Z,3.90
2023-04-30T03:05:42.687Z,5.70
2023-04-30T03:16:09.170Z,8.90
2023-04-30T03:26:35.038Z,9.00
2023-04-30T03:37:01.855Z,8.70
2023-04-30T03:47:27.487Z,8.30
2023-04-30T03:57:54.312Z,8.20
2023-04-30T04:08:20.088Z,8.80
2023-04-30T04:18:45.991Z,8.90
2023-04-30T04:29:12.770Z,10.60
2023-04-30T04:39:38.663Z,8.60
2023-04-30T04:50:05.066Z,9.10
2023-04-30T05:00:30.910Z,7.90
2023-04-30T05:10:56.767Z,8.70
2023-04-30T05:21:23.488Z,8.10
2023-04-30T05:31:49.028Z,7.80
2023-04-30T05:42:14.906Z,8.40
2023-04-30T05:52:41.570Z,7.40
2023-04-30T06:03:07.864Z,8.00
2023-04-30T06:13:34.570Z,7.70
2023-04-30T06:24:00.820Z,6.70
2023-04-30T06:34:26.100Z,7.00
2023-04-30T06:44:51.562Z,7.00
2023-04-30T06:55:17.512Z,7.00
2023-04-30T07:05:43.995Z,6.90
2023-04-30T07:16:11.467Z,7.90
2023-04-30T07:26:37.642Z,5.00
2023-04-30T07:37:03.426Z,5.60
2023-04-30T07:47:29.578Z,5.70
2023-04-30T07:57:55.563Z,4.90
2023-04-30T08:08:21.439Z,4.80
2023-04-30T08:18:49.451Z,5.50
2023-04-30T08:29:15.466Z,4.30
2023-04-30T08:39:41.034Z,3.60
2023-04-30T08:50:07.914Z,4.40
2023-04-30T09:00:35.688Z,4.00
2023-04-30T09:11:02.035Z,4.30
2023-04-30T09:21:38.696Z,3.80
2023-04-30T09:32:11.852Z,3.60
2023-04-30T09:42:38.235Z,2.70
2023-04-30T09:53:10.197Z,3.30
2023-04-30T10:03:36.802Z,3.10
2023-04-30T10:14:04.714Z,2.80
2023-04-30T10:24:31.840Z,3.50
2023-04-30T10:35:11.158Z,3.20
2023-04-30T10:45:44.190Z,2.30
2023-04-30T10:56:11.153Z,3.50
2023-04-30T11:06:56.386Z,2.30
2023-04-30T11:17:28.378Z,2.80
2023-04-30T11:27:57.544Z,2.90
2023-04-30T11:38:31.459Z,3.40
2023-04-30T11:48:58.674Z,2.80
2023-04-30T11:59:24.623Z,3.40
2023-04-30T12:09:57.247Z,2.90
2023-04-30T12:20:24.789Z,2.30
2023-04-30T12:30:50.893Z,2.20
2023-04-30T12:41:17.695Z,1.70
2023-04-30T12:51:45.612Z,1.70
2023-04-30T13:02:15.897Z,2.10
2023-04-30T13:12:41.626Z,2.30
2023-04-30T13:23:07.650Z,3.10
2023-04-30T13:33:33.049Z,2.60
2023-04-30T13:44:00.211Z,2.50
2023-04-30T13:54:25.727Z,2.80
2023-04-30T14:05:04.520Z,2.20
2023-04-30T14:15:33.077Z,2.10
2023-04-30T14:25:59.044Z,2.40
2023-04-30T14:36:25.352Z,3.30
2023-04-30T14:46:51.239Z,1.80
2023-04-30T14:57:18.697Z,2.40
2023-04-30T15:07:44.632Z,2.70
2023-04-30T15:18:10.897Z,1.50
2023-04-30T15:28:37.196Z,1.90
2023-04-30T15:39:03.978Z,1.80
2023-04-30T15:49:29.445Z,2.30
2023-04-30T15:59:56.524Z,2.20
2023-04-30T16:10:23.051Z,2.50
2023-04-30T16:20:50.143Z,3.00
2023-04-30T16:31:16.967Z,2.00
2023-04-30T16:41:43.438Z,3.20
2023-04-30T16:52:09.762Z,2.50
2023-04-30T17:02:35.635Z,2.70
2023-04-30T17:13:04.136Z,2.60
2023-04-30T17:23:29.888Z,2.40
2023-04-30T17:33:56.037Z,6.00
2023-04-30T17:44:21.656Z,7.90
2023-04-30T17:54:47.687Z,3.80
2023-04-30T18:05:14.809Z,4.00
2023-04-30T18:15:42.773Z,8.70
2023-04-30T18:26:08.657Z,5.80
2023-04-30T18:36:36.285Z,6.50
2023-04-30T18:47:02.235Z,5.10
2023-04-30T18:57:28.720Z,5.50
2023-04-30T19:07:54.642Z,6.20
2023-04-30T19:18:20.269Z,5.80
2023-04-30T19:28:45.641Z,4.30
2023-04-30T19:39:12.089Z,4.50
2023-04-30T19:49:38.141Z,7.10
2023-04-30T20:00:06.506Z,5.80
2023-04-30T20:10:33.999Z,6.10
2023-04-30T20:21:00.782Z,5.40
2023-04-30T20:31:31.304Z,6.00
2023-04-30T20:41:59.262Z,6.10
2023-04-30T20:52:24.957Z,8.60
2023-04-30T21:02:52.104Z,6.80
2023-04-30T21:13:17.906Z,6.70
2023-04-30T21:23:47.360Z,9.70
2023-04-30T21:34:13.995Z,8.40
2023-04-30T21:44:40.258Z,8.50
2023-04-30T21:55:06.718Z,9.70
2023-04-30T22:05:32.503Z,13.30
2023-04-30T22:15:58.412Z,14.50
2023-04-30T22:26:25.439Z,18.00
2023-04-30T22:36:51.805Z,14.90
2023-04-30T22:47:18.433Z,16.50
2023-04-30T22:57:44.343Z,14.30
2023-04-30T23:08:10.260Z,13.70
2023-04-30T23:18:37.163Z,11.90
2023-04-30T23:29:02.941Z,13.20
2023-04-30T23:39:29.206Z,12.80
2023-04-30T23:49:55.351Z,13.90
